createdAt,value
2022-12-15T00:00:13.261Z,-4.00
2022-12-15T00:01:13.526Z,-4.00
2022-12-15T00:02:13.701Z,-4.00
2022-12-15T00:03:14.165Z,-3.80
2022-12-15T00:04:13.288Z,-3.90
2022-12-15T00:05:13.244Z,-4.00
2022-12-15T00:06:13.335Z,-4.10
2022-12-15T00:07:13.327Z,-4.00
2022-12-15T00:08:13.179Z,-4.00
2022-12-15T00:09:14.563Z,-4.00
2022-12-15T00:10:13.518Z,-4.00
2022-12-15T00:11:13.721Z,-3.80
2022-12-15T00:12:13.761Z,-3.90
2022-12-15T00:13:13.629Z,-3.90
2022-12-15T00:14:13.726Z,-4.10
2022-12-15T00:15:13.675Z,-3.90
2022-12-15T00:16:13.800Z,-3.90
2022-12-15T00:17:13.911Z,-3.80
2022-12-15T00:18:12.776Z,-3.80
2022-12-15T00:19:13.659Z,-3.90
2022-12-15T00:20:13.740Z,-3.90
2022-12-15T00:21:13.749Z,-3.80
2022-12-15T00:22:18.705Z,-3.90
2022-12-15T00:23:13.995Z,-3.90
2022-12-15T00:24:13.068Z,-3.80
2022-12-15T00:25:13.302Z,-3.90
2022-12-15T00:26:13.579Z,-3.80
2022-12-15T00:27:13.601Z,-3.90
2022-12-15T00:28:13.826Z,-4.10
2022-12-15T00:29:14.115Z,-4.10
2022-12-15T00:30:13.363Z,-3.90
2022-12-15T00:31:13.487Z,-3.90
2022-12-15T00:32:13.499Z,-4.10
2022-12-15T00:33:13.582Z,-3.90
2022-12-15T00:34:14.374Z,-4.00
2022-12-15T00:35:13.541Z,-4.10
2022-12-15T00:36:14.078Z,-4.10
2022-12-15T00:37:13.292Z,-4.00
2022-12-15T00:38:13.240Z,-4.20
2022-12-15T00:39:13.279Z,-4.10
2022-12-15T00:40:13.248Z,-4.00
2022-12-15T00:41:13.572Z,-4.10
2022-12-15T00:42:13.816Z,-4.20
2022-12-15T00:43:13.846Z,-4.10
2022-12-15T00:44:18.916Z,-4.20
2022-12-15T00:45:13.488Z,-4.20
2022-12-15T00:46:13.587Z,-4.10
2022-12-15T00:47:13.793Z,-4.10
2022-12-15T00:48:13.656Z,-4.20
2022-12-15T00:49:13.555Z,-4.30
2022-12-15T00:50:13.473Z,-4.30
2022-12-15T00:51:13.454Z,-4.30
2022-12-15T00:52:13.563Z,-4.10
2022-12-15T00:53:13.566Z,-4.30
2022-12-15T00:54:17.855Z,-4.40
2022-12-15T00:55:13.348Z,-4.30
2022-12-15T00:56:13.230Z,-4.30
2022-12-15T00:57:13.194Z,-4.30
2022-12-15T00:58:13.151Z,-4.30
2022-12-15T00:59:13.131Z,-4.20
2022-12-15T01:00:13.065Z,-4.20
2022-12-15T01:01:13.049Z,-4.20
2022-12-15T01:02:13.411Z,-4.30
2022-12-15T01:03:13.720Z,-4.20
2022-12-15T01:04:13.866Z,-4.20
2022-12-15T01:05:12.914Z,-4.10
2022-12-15T01:06:12.866Z,-4.30
2022-12-15T01:07:13.816Z,-4.30
2022-12-15T01:08:14.158Z,-4.40
2022-12-15T01:09:13.043Z,-4.40
2022-12-15T01:10:12.965Z,-4.40
2022-12-15T01:11:13.368Z,-4.30
2022-12-15T01:12:13.354Z,-4.30
2022-12-15T01:13:13.313Z,-4.20
2022-12-15T01:14:13.226Z,-4.20
2022-12-15T01:15:13.361Z,-4.20
2022-12-15T01:16:13.397Z,-4.10
2022-12-15T01:17:13.551Z,-4.20
2022-12-15T01:18:13.489Z,-4.10
2022-12-15T01:19:13.503Z,-4.00
2022-12-15T01:20:13.456Z,-4.10
2022-12-15T01:21:13.385Z,-4.10
2022-12-15T01:22:13.239Z,-4.40
2022-12-15T01:23:13.168Z,-4.40
2022-12-15T01:24:13.519Z,-4.40
2022-12-15T01:25:14.651Z,-4.30
2022-12-15T01:26:13.635Z,-4.30
2022-12-15T01:27:13.531Z,-4.10
2022-12-15T01:28:13.611Z,-4.20
2022-12-15T01:29:13.544Z,-4.10
2022-12-15T01:30:13.674Z,-4.10
2022-12-15T01:31:13.687Z,-4.20
2022-12-15T01:32:13.771Z,-4.30
2022-12-15T01:33:13.746Z,-4.30
2022-12-15T01:34:13.982Z,-4.30
2022-12-15T01:35:12.941Z,-4.30
2022-12-15T01:36:13.022Z,-4.30
2022-12-15T01:37:13.043Z,-4.40
2022-12-15T01:38:13.035Z,-4.40
2022-12-15T01:39:12.966Z,-4.20
2022-12-15T01:40:13.100Z,-4.20
2022-12-15T01:41:13.154Z,-4.20
2022-12-15T01:42:13.045Z,-4.30
2022-12-15T01:43:13.153Z,-4.30
2022-12-15T01:44:13.083Z,-4.30
2022-12-15T01:45:12.985Z,-4.40
2022-12-15T01:46:13.021Z,-4.20
2022-12-15T01:47:13.177Z,-4.10
2022-12-15T01:48:13.223Z,-4.20
2022-12-15T01:49:13.484Z,-4.10
2022-12-15T01:50:13.553Z,-4.00
2022-12-15T01:51:13.457Z,-4.20
2022-12-15T01:52:13.607Z,-4.10
2022-12-15T01:53:13.778Z,-4.20
2022-12-15T01:54:13.749Z,-4.00
2022-12-15T01:55:13.643Z,-4.00
2022-12-15T01:56:14.007Z,-4.20
2022-12-15T01:57:13.229Z,-4.10
2022-12-15T01:58:13.114Z,-4.00
2022-12-15T01:59:13.091Z,-4.10
2022-12-15T02:00:13.023Z,-4.10
2022-12-15T02:01:13.134Z,-4.00
2022-12-15T02:02:13.199Z,-3.80
2022-12-15T02:03:13.213Z,-3.90
2022-12-15T02:04:13.187Z,-4.20
2022-12-15T02:05:13.314Z,-4.20
2022-12-15T02:06:13.314Z,-4.10
2022-12-15T02:07:13.204Z,-4.20
2022-12-15T02:08:13.349Z,-4.10
2022-12-15T02:09:13.432Z,-4.00
2022-12-15T02:10:13.525Z,-4.10
2022-12-15T02:11:13.351Z,-4.00
2022-12-15T02:12:13.628Z,-4.00
2022-12-15T02:13:13.700Z,-4.10
2022-12-15T02:14:13.565Z,-4.10
2022-12-15T02:15:13.763Z,-4.10
2022-12-15T02:16:13.644Z,-4.10
2022-12-15T02:17:13.749Z,-4.20
2022-12-15T02:18:13.671Z,-4.00
2022-12-15T02:19:13.631Z,-4.00
2022-12-15T02:20:13.567Z,-4.10
2022-12-15T02:21:13.583Z,-4.10
2022-12-15T02:22:13.609Z,-4.30
2022-12-15T02:23:14.145Z,-4.20
2022-12-15T02:24:13.255Z,-4.10
2022-12-15T02:25:13.362Z,-4.00
2022-12-15T02:26:13.367Z,-4.10
2022-12-15T02:27:13.840Z,-4.20
2022-12-15T02:28:14.353Z,-4.30
2022-12-15T02:29:13.457Z,-4.30
2022-12-15T02:30:13.675Z,-4.10
2022-12-15T02:31:13.702Z,-4.20
2022-12-15T02:32:13.669Z,-4.30
2022-12-15T02:33:13.523Z,-4.10
2022-12-15T02:34:13.408Z,-4.10
2022-12-15T02:35:13.398Z,-4.00
2022-12-15T02:36:13.374Z,-4.00
2022-12-15T02:37:13.211Z,-4.00
2022-12-15T02:38:13.203Z,-4.20
2022-12-15T02:39:13.091Z,-4.00
2022-12-15T02:40:13.220Z,-4.10
2022-12-15T02:41:13.304Z,-4.00
2022-12-15T02:42:13.261Z,-4.00
2022-12-15T02:43:13.260Z,-4.10
2022-12-15T02:44:13.574Z,-3.90
2022-12-15T02:45:13.545Z,-4.00
2022-12-15T02:46:13.625Z,-4.00
2022-12-15T02:47:13.544Z,-4.10
2022-12-15T02:48:13.674Z,-4.10
2022-12-15T02:49:13.940Z,-3.90
2022-12-15T02:50:12.856Z,-3.90
2022-12-15T02:51:19.051Z,-4.10
2022-12-15T02:52:12.874Z,-4.10
2022-12-15T02:53:13.840Z,-4.00
2022-12-15T02:54:13.951Z,-4.00
2022-12-15T02:55:13.092Z,-3.90
2022-12-15T02:56:13.043Z,-3.90
2022-12-15T02:57:12.976Z,-4.00
2022-12-15T02:58:13.137Z,-4.00
2022-12-15T02:59:13.194Z,-4.00
2022-12-15T03:00:13.132Z,-4.30
2022-12-15T03:01:13.499Z,-4.30
2022-12-15T03:02:13.870Z,-4.40
2022-12-15T03:03:13.060Z,-4.30
2022-12-15T03:04:13.388Z,-4.30
2022-12-15T03:05:13.610Z,-4.30
2022-12-15T03:06:13.624Z,-4.10
2022-12-15T03:07:13.527Z,-4.30
2022-12-15T03:08:13.366Z,-4.20
2022-12-15T03:09:13.494Z,-4.10
2022-12-15T03:10:13.370Z,-4.10
2022-12-15T03:11:13.291Z,-4.00
2022-12-15T03:12:13.195Z,-4.00
2022-12-15T03:13:13.410Z,-4.20
2022-12-15T03:14:13.241Z,-4.10
2022-12-15T03:15:13.532Z,-4.10
2022-12-15T03:16:14.165Z,-4.10
2022-12-15T03:17:13.282Z,-4.10
2022-12-15T03:18:13.416Z,-4.00
2022-12-15T03:19:13.532Z,-4.00
2022-12-15T03:20:13.501Z,-4.10
2022-12-15T03:21:13.643Z,-4.10
2022-12-15T03:22:13.834Z,-4.00
2022-12-15T03:23:13.906Z,-4.00
2022-12-15T03:24:13.082Z,-4.00
2022-12-15T03:25:13.070Z,-4.00
2022-12-15T03:26:13.163Z,-3.90
2022-12-15T03:27:13.167Z,-3.90
2022-12-15T03:28:13.205Z,-3.90
2022-12-15T03:29:13.514Z,-4.00
2022-12-15T03:30:13.525Z,-4.10
2022-12-15T03:31:13.601Z,-3.90
2022-12-15T03:32:13.733Z,-4.00
2022-12-15T03:33:14.295Z,-4.00
2022-12-15T03:34:14.043Z,-4.10
2022-12-15T03:35:13.034Z,-4.00
2022-12-15T03:36:18.228Z,-4.00
2022-12-15T03:37:13.777Z,-3.90
2022-12-15T03:38:13.747Z,-3.90
2022-12-15T03:39:14.463Z,-3.90
2022-12-15T03:40:13.518Z,-3.80
2022-12-15T03:41:13.650Z,-3.90
2022-12-15T03:42:14.204Z,-4.00
2022-12-15T03:43:13.347Z,-4.10
2022-12-15T03:44:13.313Z,-3.90
2022-12-15T03:45:13.242Z,-4.00
2022-12-15T03:46:13.511Z,-3.90
2022-12-15T03:47:13.842Z,-3.90
2022-12-15T03:48:13.879Z,-3.90
2022-12-15T03:49:14.005Z,-3.90
2022-12-15T03:50:13.072Z,-4.00
2022-12-15T03:51:18.434Z,-3.90
2022-12-15T03:52:14.107Z,-3.90
2022-12-15T03:53:13.149Z,-3.90
2022-12-15T03:54:14.529Z,-3.80
2022-12-15T03:55:13.922Z,-3.90
2022-12-15T03:56:13.115Z,-3.80
2022-12-15T03:57:13.321Z,-3.90
2022-12-15T03:58:13.458Z,-3.80
2022-12-15T03:59:13.435Z,-3.80
2022-12-15T04:00:13.332Z,-3.90
2022-12-15T04:01:13.346Z,-3.70
2022-12-15T04:02:13.698Z,-3.80
2022-12-15T04:03:13.010Z,-3.70
2022-12-15T04:04:13.054Z,-3.80
2022-12-15T04:05:13.060Z,-3.70
2022-12-15T04:06:13.304Z,-3.80
2022-12-15T04:07:13.219Z,-3.80
2022-12-15T04:08:15.180Z,-3.70
2022-12-15T04:09:13.208Z,-3.80
2022-12-15T04:10:13.374Z,-3.60
2022-12-15T04:11:13.465Z,-3.80
2022-12-15T04:12:13.344Z,-3.80
2022-12-15T04:13:13.619Z,-3.70
2022-12-15T04:14:13.765Z,-3.80
2022-12-15T04:15:13.819Z,-3.70
2022-12-15T04:16:19.530Z,-3.80
2022-12-15T04:17:13.120Z,-3.80
2022-12-15T04:18:13.056Z,-3.80
2022-12-15T04:19:13.193Z,-3.80
2022-12-15T04:20:13.269Z,-3.70
2022-12-15T04:21:13.348Z,-3.80
2022-12-15T04:22:17.802Z,-3.70
2022-12-15T04:23:13.104Z,-3.70
2022-12-15T04:24:13.178Z,-3.80
2022-12-15T04:25:13.466Z,-3.60
2022-12-15T04:26:13.332Z,-3.70
2022-12-15T04:27:13.264Z,-3.70
2022-12-15T04:28:13.579Z,-3.60
2022-12-15T04:29:13.650Z,-3.70
2022-12-15T04:30:31.983Z,-3.70
2022-12-15T04:31:13.026Z,-3.60
2022-12-15T04:32:13.134Z,-3.70
2022-12-15T04:33:13.058Z,-3.60
2022-12-15T04:34:13.242Z,-3.50
2022-12-15T04:35:13.152Z,-3.60
2022-12-15T04:36:12.972Z,-3.60
2022-12-15T04:37:28.886Z,-3.60
2022-12-15T04:38:12.812Z,-3.60
2022-12-15T04:39:13.948Z,-3.20
2022-12-15T04:40:12.932Z,-3.50
2022-12-15T04:41:12.920Z,-3.60
2022-12-15T04:42:13.542Z,-3.60
2022-12-15T04:43:13.438Z,-3.50
2022-12-15T04:44:13.358Z,-3.70
2022-12-15T04:45:18.609Z,-3.70
2022-12-15T04:46:13.482Z,-3.70
2022-12-15T04:47:26.305Z,-3.70
2022-12-15T04:48:13.167Z,-3.70
2022-12-15T04:49:13.220Z,-3.50
2022-12-15T04:50:13.202Z,-3.50
2022-12-15T04:51:35.449Z,-3.50
2022-12-15T04:52:13.789Z,-3.60
2022-12-15T04:53:13.852Z,-3.50
2022-12-15T04:54:41.072Z,-3.60
2022-12-15T04:55:13.312Z,-3.60
2022-12-15T04:56:18.219Z,-3.30
2022-12-15T04:57:14.460Z,-3.40
2022-12-15T04:58:13.623Z,-3.50
2022-12-15T04:59:14.389Z,-3.60
2022-12-15T05:00:13.539Z,-3.50
2022-12-15T05:01:13.523Z,-3.40
2022-12-15T05:02:13.698Z,-3.50
2022-12-15T05:03:18.109Z,-3.60
2022-12-15T05:04:14.725Z,-3.60
2022-12-15T05:05:13.755Z,-3.50
2022-12-15T05:06:13.879Z,-3.80
2022-12-15T05:07:13.538Z,-4.00
2022-12-15T05:08:13.907Z,-3.80
2022-12-15T05:09:13.178Z,-3.80
2022-12-15T05:10:15.263Z,-3.90
2022-12-15T05:11:13.408Z,-3.80
2022-12-15T05:12:13.927Z,-3.80
2022-12-15T05:13:13.162Z,-3.80
2022-12-15T05:14:13.160Z,-3.80
2022-12-15T05:15:13.387Z,-3.80
2022-12-15T05:16:15.069Z,-3.90
2022-12-15T05:17:13.706Z,-3.90
2022-12-15T05:18:15.496Z,-3.90
2022-12-15T05:19:13.910Z,-4.00
2022-12-15T05:21:13.023Z,-3.90
2022-12-15T05:22:12.962Z,-3.80
2022-12-15T05:23:12.984Z,-3.70
2022-12-15T05:24:13.326Z,-4.00
2022-12-15T05:26:19.139Z,-4.00
2022-12-15T05:27:13.497Z,-3.80
2022-12-15T05:28:13.587Z,-3.80
2022-12-15T05:29:13.496Z,-3.90
2022-12-15T05:30:13.798Z,-3.80
2022-12-15T05:31:20.035Z,-3.80
2022-12-15T05:33:12.900Z,-3.70
2022-12-15T05:34:12.848Z,-3.70
2022-12-15T05:35:13.978Z,-3.80
2022-12-15T05:36:13.146Z,-3.80
2022-12-15T05:37:13.509Z,-3.80
2022-12-15T05:38:36.110Z,-3.90
2022-12-15T05:39:13.349Z,-3.80
2022-12-15T05:40:13.418Z,-3.70
2022-12-15T05:41:18.648Z,-3.80
2022-12-15T05:42:14.248Z,-3.60
2022-12-15T05:43:13.502Z,-3.60
2022-12-15T05:44:13.753Z,-3.70
2022-12-15T05:45:18.973Z,-3.70
2022-12-15T05:46:13.125Z,-3.80
2022-12-15T05:47:13.464Z,-3.70
2022-12-15T05:48:13.419Z,-3.70
2022-12-15T05:49:13.340Z,-3.60
2022-12-15T05:50:13.327Z,-3.60
2022-12-15T05:51:13.336Z,-3.70
2022-12-15T05:52:13.739Z,-3.60
2022-12-15T05:53:13.955Z,-3.50
2022-12-15T05:54:13.207Z,-3.50
2022-12-15T05:55:13.510Z,-3.60
2022-12-15T05:56:13.494Z,-3.70
2022-12-15T05:57:13.471Z,-3.50
2022-12-15T05:58:13.421Z,-3.50
2022-12-15T05:59:13.345Z,-3.60
2022-12-15T06:00:13.539Z,-3.40
2022-12-15T06:01:13.553Z,-3.70
2022-12-15T06:02:13.846Z,-3.60
2022-12-15T06:03:13.048Z,-3.60
2022-12-15T06:04:13.369Z,-3.80
2022-12-15T06:05:13.580Z,-3.80
2022-12-15T06:06:14.856Z,-3.80
2022-12-15T06:07:13.841Z,-3.60
2022-12-15T06:08:19.062Z,-3.70
2022-12-15T06:09:13.104Z,-3.80
2022-12-15T06:10:13.098Z,-3.80
2022-12-15T06:11:12.986Z,-3.70
2022-12-15T06:12:12.864Z,-3.70
2022-12-15T06:13:14.188Z,-3.90
2022-12-15T06:14:13.321Z,-3.90
2022-12-15T06:15:13.282Z,-3.80
2022-12-15T06:16:13.261Z,-3.90
2022-12-15T06:17:13.457Z,-3.70
2022-12-15T06:18:13.439Z,-3.70
2022-12-15T06:19:20.681Z,-3.80
2022-12-15T06:20:13.674Z,-3.80
2022-12-15T06:21:13.621Z,-3.70
2022-12-15T06:22:18.615Z,-3.70
2022-12-15T06:23:13.777Z,-3.70
2022-12-15T06:24:13.965Z,-3.80
2022-12-15T06:25:12.940Z,-3.80
2022-12-15T06:26:13.187Z,-3.70
2022-12-15T06:27:13.279Z,-3.80
2022-12-15T06:28:13.376Z,-3.80
2022-12-15T06:29:13.439Z,-3.80
2022-12-15T06:30:13.557Z,-3.70
2022-12-15T06:31:13.557Z,-3.80
2022-12-15T06:32:57.875Z,-3.90
2022-12-15T06:33:13.756Z,-3.90
2022-12-15T06:34:13.700Z,-3.90
2022-12-15T06:35:13.700Z,-3.80
2022-12-15T06:36:13.600Z,-3.80
2022-12-15T06:37:13.713Z,-3.90
2022-12-15T06:38:13.739Z,-3.90
2022-12-15T06:39:14.298Z,-3.80
2022-12-15T06:40:13.361Z,-3.80
2022-12-15T06:41:13.444Z,-3.80
2022-12-15T06:42:13.459Z,-3.80
2022-12-15T06:43:13.392Z,-3.80
2022-12-15T06:44:13.495Z,-3.80
2022-12-15T06:45:13.558Z,-3.90
2022-12-15T06:46:13.632Z,-4.00
2022-12-15T06:47:14.144Z,-3.90
2022-12-15T06:48:13.129Z,-3.80
2022-12-15T06:49:13.028Z,-3.90
2022-12-15T06:50:12.975Z,-3.90
2022-12-15T06:51:16.747Z,-3.90
2022-12-15T06:52:13.530Z,-3.90
2022-12-15T06:53:13.409Z,-3.90
2022-12-15T06:54:13.379Z,-3.90
2022-12-15T06:55:13.448Z,-3.90
2022-12-15T06:56:13.473Z,-3.90
2022-12-15T06:57:13.700Z,-3.90
2022-12-15T06:58:13.687Z,-3.90
2022-12-15T06:59:13.695Z,-3.80
2022-12-15T07:00:13.990Z,-3.90
2022-12-15T07:01:12.991Z,-3.70
2022-12-15T07:02:13.177Z,-3.80
2022-12-15T07:03:13.485Z,-3.70
2022-12-15T07:04:13.739Z,-3.70
2022-12-15T07:05:13.980Z,-3.80
2022-12-15T07:06:13.032Z,-3.70
2022-12-15T07:07:13.151Z,-3.80
2022-12-15T07:08:13.106Z,-3.60
2022-12-15T07:09:13.202Z,-3.70
2022-12-15T07:10:23.510Z,-3.80
2022-12-15T07:11:13.437Z,-3.80
2022-12-15T07:13:13.222Z,-3.60
2022-12-15T07:14:13.183Z,-3.60
2022-12-15T07:15:18.081Z,-3.70
2022-12-15T07:16:13.432Z,-3.60
2022-12-15T07:17:13.631Z,-3.70
2022-12-15T07:18:13.705Z,-3.60
2022-12-15T07:19:13.849Z,-3.70
2022-12-15T07:20:13.936Z,-3.40
2022-12-15T07:21:13.125Z,-3.50
2022-12-15T07:22:13.077Z,-3.50
2022-12-15T07:23:13.184Z,-3.50
2022-12-15T07:24:13.211Z,-3.60
2022-12-15T07:25:13.171Z,-3.80
2022-12-15T07:26:13.176Z,-3.70
2022-12-15T07:27:13.384Z,-3.70
2022-12-15T07:28:13.680Z,-3.60
2022-12-15T07:29:18.140Z,-3.40
2022-12-15T07:30:35.279Z,-3.60
2022-12-15T07:31:13.881Z,-3.60
2022-12-15T07:32:13.366Z,-3.50
2022-12-15T07:33:13.362Z,-3.60
2022-12-15T07:34:13.208Z,-3.70
2022-12-15T07:35:13.139Z,-3.70
2022-12-15T07:36:13.080Z,-3.60
2022-12-15T07:37:12.921Z,-3.60
2022-12-15T07:38:13.335Z,-3.60
2022-12-15T07:39:13.534Z,-3.60
2022-12-15T07:40:13.891Z,-3.60
2022-12-15T07:41:12.987Z,-3.50
2022-12-15T07:42:13.056Z,-3.60
2022-12-15T07:43:13.067Z,-3.40
2022-12-15T07:44:13.331Z,-3.70
2022-12-15T07:46:13.650Z,-3.70
2022-12-15T07:47:14.421Z,-3.70
2022-12-15T07:48:38.517Z,-3.80
2022-12-15T07:49:20.545Z,-3.70
2022-12-15T07:50:13.868Z,-3.60
2022-12-15T07:51:19.356Z,-3.50
2022-12-15T07:52:45.336Z,-3.50
2022-12-15T07:53:13.239Z,-3.60
2022-12-15T07:54:24.545Z,-3.50
2022-12-15T07:55:13.576Z,-3.50
2022-12-15T07:56:17.761Z,-3.40
2022-12-15T07:57:13.741Z,-3.40
2022-12-15T07:58:36.166Z,-3.40
2022-12-15T07:59:13.289Z,-3.20
2022-12-15T08:00:13.589Z,-3.50
2022-12-15T08:01:13.554Z,-3.50
2022-12-15T08:02:43.859Z,-3.40
2022-12-15T08:03:13.803Z,-3.40
2022-12-15T08:04:14.137Z,-3.40
2022-12-15T08:05:13.233Z,-3.50
2022-12-15T08:06:13.544Z,-3.50
2022-12-15T08:07:13.646Z,-3.40
2022-12-15T08:08:15.406Z,-3.50
2022-12-15T08:09:13.862Z,-3.50
2022-12-15T08:10:13.859Z,-3.40
2022-12-15T08:11:13.781Z,-3.30
2022-12-15T08:12:13.684Z,-3.30
2022-12-15T08:13:31.424Z,-3.20
2022-12-15T08:14:17.630Z,-3.20
2022-12-15T08:15:13.267Z,-3.30
2022-12-15T08:16:13.200Z,-3.30
2022-12-15T08:17:23.152Z,-3.20
2022-12-15T08:18:13.287Z,-3.10
2022-12-15T08:19:31.206Z,-3.10
2022-12-15T08:20:13.168Z,-3.10
2022-12-15T08:21:13.132Z,-3.00
2022-12-15T08:22:13.374Z,-3.00
2022-12-15T08:23:13.562Z,-3.00
2022-12-15T08:24:13.949Z,-3.10
2022-12-15T08:25:37.857Z,-3.10
2022-12-15T08:26:13.779Z,-3.10
2022-12-15T08:27:32.669Z,-3.00
2022-12-15T08:28:13.793Z,-3.00
2022-12-15T08:29:50.153Z,-3.10
2022-12-15T08:30:13.933Z,-3.00
2022-12-15T08:31:18.039Z,-3.00
2022-12-15T08:32:13.169Z,-2.90
2022-12-15T08:33:13.160Z,-3.00
2022-12-15T08:35:39.036Z,-3.10
2022-12-15T08:36:45.875Z,-3.00
2022-12-15T08:37:14.213Z,-3.20
2022-12-15T08:38:13.228Z,-2.90
2022-12-15T08:39:13.375Z,-2.80
2022-12-15T08:40:13.584Z,-2.90
2022-12-15T08:41:20.265Z,-2.90
2022-12-15T08:42:13.804Z,-2.90
2022-12-15T08:43:13.957Z,-2.80
2022-12-15T08:44:13.814Z,-2.90
2022-12-15T08:45:13.892Z,-3.00
2022-12-15T08:46:13.209Z,-2.80
2022-12-15T08:47:13.522Z,-2.90
2022-12-15T08:48:13.430Z,-2.90
2022-12-15T08:49:23.587Z,-2.70
2022-12-15T08:50:43.239Z,-2.60
2022-12-15T08:51:13.835Z,-2.70
2022-12-15T08:52:14.144Z,-2.60
2022-12-15T08:53:39.144Z,-2.60
2022-12-15T08:54:13.479Z,-2.70
2022-12-15T08:55:16.781Z,-2.50
2022-12-15T08:56:14.042Z,-2.50
2022-12-15T08:57:13.257Z,-2.50
2022-12-15T08:58:13.319Z,-2.40
2022-12-15T08:59:13.270Z,-2.50
2022-12-15T09:00:13.281Z,-2.50
2022-12-15T09:01:17.478Z,-2.30
2022-12-15T09:02:13.490Z,-2.30
2022-12-15T09:03:14.462Z,-2.30
2022-12-15T09:04:13.681Z,-2.20
2022-12-15T09:05:13.800Z,-2.00
2022-12-15T09:06:14.175Z,-2.30
2022-12-15T09:07:14.012Z,-2.20
2022-12-15T09:08:13.130Z,-2.10
2022-12-15T09:09:13.173Z,-2.00
2022-12-15T09:10:13.079Z,-2.10
2022-12-15T09:11:13.095Z,-2.00
2022-12-15T09:12:13.736Z,-2.20
2022-12-15T09:13:14.054Z,-2.20
2022-12-15T09:14:13.141Z,-2.10
2022-12-15T09:15:13.315Z,-2.10
2022-12-15T09:16:13.849Z,-2.00
2022-12-15T09:17:14.252Z,-2.10
2022-12-15T09:18:13.204Z,-2.00
2022-12-15T09:19:13.171Z,-2.00
2022-12-15T09:20:17.492Z,-1.80
2022-12-15T09:21:12.832Z,-1.80
2022-12-15T09:22:14.215Z,-1.80
2022-12-15T09:23:13.100Z,-1.90
2022-12-15T09:24:17.699Z,-1.90
2022-12-15T09:25:13.329Z,-1.90
2022-12-15T09:26:13.559Z,-1.80
2022-12-15T09:27:13.794Z,-2.00
2022-12-15T09:28:13.783Z,-1.90
2022-12-15T09:29:14.155Z,-1.70
2022-12-15T09:30:13.496Z,-1.50
2022-12-15T09:31:13.459Z,-1.40
2022-12-15T09:32:14.395Z,-1.20
2022-12-15T09:33:13.601Z,-1.30
2022-12-15T09:34:13.575Z,-1.30
2022-12-15T09:35:13.723Z,-0.90
2022-12-15T09:36:14.264Z,-0.60
2022-12-15T09:37:13.562Z,-0.20
2022-12-15T09:38:13.530Z,0.90
2022-12-15T09:39:13.552Z,1.30
2022-12-15T09:40:13.756Z,2.10
2022-12-15T09:41:13.751Z,2.60
2022-12-15T09:42:13.638Z,1.90
2022-12-15T09:43:33.916Z,1.40
2022-12-15T09:44:12.993Z,2.40
2022-12-15T09:45:12.979Z,1.90
2022-12-15T09:46:12.985Z,1.80
2022-12-15T09:47:13.019Z,1.90
2022-12-15T09:48:13.215Z,1.70
2022-12-15T09:49:13.343Z,1.80
2022-12-15T09:50:13.746Z,2.00
2022-12-15T09:51:13.688Z,2.50
2022-12-15T09:52:14.660Z,2.20
2022-12-15T09:53:45.688Z,2.40
2022-12-15T09:54:13.542Z,2.90
2022-12-15T09:55:13.786Z,3.00
2022-12-15T09:56:12.850Z,2.70
2022-12-15T09:57:14.012Z,2.90
2022-12-15T09:58:12.938Z,3.40
2022-12-15T09:59:12.967Z,3.30
2022-12-15T10:00:12.909Z,2.80
2022-12-15T10:01:13.160Z,2.40
2022-12-15T10:02:13.375Z,2.60
2022-12-15T10:03:13.920Z,3.00
2022-12-15T10:04:13.010Z,2.10
2022-12-15T10:05:13.347Z,2.50
2022-12-15T10:06:18.970Z,2.80
2022-12-15T10:07:13.031Z,4.00
2022-12-15T10:08:13.363Z,4.10
2022-12-15T10:09:13.307Z,3.40
2022-12-15T10:10:13.381Z,3.30
2022-12-15T10:11:14.557Z,4.00
2022-12-15T10:12:13.671Z,3.80
2022-12-15T10:13:14.233Z,3.40
2022-12-15T10:14:13.476Z,3.00
2022-12-15T10:15:13.561Z,2.70
2022-12-15T10:16:13.467Z,3.40
2022-12-15T10:17:13.520Z,4.10
2022-12-15T10:18:13.784Z,4.10
2022-12-15T10:19:13.857Z,3.80
2022-12-15T10:20:13.804Z,4.00
2022-12-15T10:21:13.769Z,4.20
2022-12-15T10:22:13.769Z,3.80
2022-12-15T10:23:13.747Z,4.20
2022-12-15T10:24:13.719Z,3.90
2022-12-15T10:25:13.641Z,3.80
2022-12-15T10:26:13.695Z,3.80
2022-12-15T10:27:13.666Z,3.60
2022-12-15T10:28:13.743Z,3.30
2022-12-15T10:29:13.707Z,3.90
2022-12-15T10:30:14.235Z,3.30
2022-12-15T10:31:13.356Z,3.50
2022-12-15T10:32:13.420Z,3.20
2022-12-15T10:33:13.665Z,3.00
2022-12-15T10:34:13.853Z,3.50
2022-12-15T10:35:14.188Z,3.10
2022-12-15T10:36:13.321Z,3.20
2022-12-15T10:37:13.596Z,4.00
2022-12-15T10:38:13.537Z,3.10
2022-12-15T10:39:16.219Z,3.40
2022-12-15T10:40:13.637Z,3.20
2022-12-15T10:41:13.800Z,4.50
2022-12-15T10:42:13.933Z,4.90
2022-12-15T10:43:13.031Z,4.20
2022-12-15T10:44:13.010Z,3.30
2022-12-15T10:45:13.032Z,4.10
2022-12-15T10:46:13.251Z,4.70
2022-12-15T10:47:13.515Z,4.60
2022-12-15T10:48:13.397Z,5.30
2022-12-15T10:49:13.388Z,5.70
2022-12-15T10:50:25.019Z,6.00
2022-12-15T10:51:13.357Z,6.00
2022-12-15T10:52:13.276Z,6.20
2022-12-15T10:53:13.270Z,6.30
2022-12-15T10:54:13.298Z,6.20
2022-12-15T10:55:13.364Z,6.60
2022-12-15T10:56:13.393Z,6.10
2022-12-15T10:57:13.297Z,5.60
2022-12-15T10:58:13.378Z,4.80
2022-12-15T10:59:13.355Z,4.80
2022-12-15T11:00:13.339Z,5.20
2022-12-15T11:01:13.343Z,5.50
2022-12-15T11:02:18.011Z,5.40
2022-12-15T11:03:13.979Z,5.60
2022-12-15T11:04:33.358Z,4.80
2022-12-15T11:05:13.376Z,5.20
2022-12-15T11:06:13.402Z,5.30
2022-12-15T11:07:13.318Z,5.80
2022-12-15T11:08:13.227Z,5.90
2022-12-15T11:09:13.166Z,4.80
2022-12-15T11:10:13.152Z,5.10
2022-12-15T11:11:13.135Z,5.00
2022-12-15T11:12:13.187Z,5.50
2022-12-15T11:13:13.182Z,6.00
2022-12-15T11:14:13.033Z,6.30
2022-12-15T11:15:12.970Z,7.00
2022-12-15T11:16:13.113Z,5.90
2022-12-15T11:17:13.425Z,5.30
2022-12-15T11:18:13.577Z,5.70
2022-12-15T11:19:13.473Z,5.50
2022-12-15T11:20:13.382Z,5.20
2022-12-15T11:21:13.389Z,5.80
2022-12-15T11:22:13.530Z,4.60
2022-12-15T11:23:13.532Z,4.40
2022-12-15T11:24:13.473Z,4.90
2022-12-15T11:25:13.414Z,5.00
2022-12-15T11:26:13.566Z,4.90
2022-12-15T11:27:13.593Z,6.30
2022-12-15T11:28:13.575Z,5.50
2022-12-15T11:29:13.638Z,5.40
2022-12-15T11:30:13.608Z,6.40
2022-12-15T11:31:13.571Z,7.20
2022-12-15T11:32:13.698Z,7.50
2022-12-15T11:33:13.607Z,6.60
2022-12-15T11:34:14.056Z,5.50
2022-12-15T11:35:13.115Z,5.60
2022-12-15T11:36:13.150Z,5.40
2022-12-15T11:37:13.331Z,4.30
2022-12-15T11:38:13.237Z,4.70
2022-12-15T11:39:13.383Z,4.60
2022-12-15T11:40:13.390Z,4.90
2022-12-15T11:41:13.283Z,5.50
2022-12-15T11:42:13.313Z,6.50
2022-12-15T11:43:13.446Z,6.40
2022-12-15T11:44:13.444Z,6.40
2022-12-15T11:45:13.368Z,5.80
2022-12-15T11:46:13.379Z,7.00
2022-12-15T11:47:13.314Z,7.60
2022-12-15T11:48:13.349Z,6.70
2022-12-15T11:49:13.579Z,6.80
2022-12-15T11:50:13.571Z,5.70
2022-12-15T11:51:13.923Z,6.60
2022-12-15T11:52:12.885Z,6.00
2022-12-15T11:53:15.384Z,6.60
2022-12-15T11:54:13.239Z,5.60
2022-12-15T11:55:13.173Z,4.90
2022-12-15T11:56:13.267Z,5.10
2022-12-15T11:57:13.268Z,5.50
2022-12-15T11:58:13.143Z,5.90
2022-12-15T11:59:13.038Z,5.50
2022-12-15T12:00:13.146Z,6.50
2022-12-15T12:01:13.259Z,6.60
2022-12-15T12:02:13.243Z,7.30
2022-12-15T12:03:13.288Z,7.70
2022-12-15T12:04:13.223Z,7.90
2022-12-15T12:05:13.191Z,6.80
2022-12-15T12:06:13.518Z,6.70
2022-12-15T12:07:13.993Z,6.50
2022-12-15T12:08:13.192Z,5.90
2022-12-15T12:09:13.050Z,6.50
2022-12-15T12:10:13.019Z,6.80
2022-12-15T12:11:14.030Z,6.00
2022-12-15T12:12:13.319Z,5.80
2022-12-15T12:13:13.307Z,6.80
2022-12-15T12:14:13.245Z,6.20
2022-12-15T12:15:13.345Z,5.10
2022-12-15T12:16:13.381Z,4.10
2022-12-15T12:17:13.283Z,4.10
2022-12-15T12:18:13.220Z,4.70
2022-12-15T12:19:13.141Z,4.70
2022-12-15T12:20:13.287Z,4.70
2022-12-15T12:21:13.618Z,4.30
2022-12-15T12:22:15.155Z,4.90
2022-12-15T12:23:13.355Z,5.50
2022-12-15T12:24:13.511Z,4.70
2022-12-15T12:25:13.568Z,4.20
2022-12-15T12:26:13.707Z,4.30
2022-12-15T12:27:13.668Z,4.30
2022-12-15T12:28:13.966Z,3.90
2022-12-15T12:29:13.065Z,4.80
2022-12-15T12:30:13.027Z,5.30
2022-12-15T12:31:13.215Z,4.70
2022-12-15T12:32:13.125Z,4.20
2022-12-15T12:33:13.085Z,4.60
2022-12-15T12:34:13.003Z,5.40
2022-12-15T12:35:30.626Z,5.50
2022-12-15T12:36:13.562Z,5.40
2022-12-15T12:37:13.606Z,4.40
2022-12-15T12:38:13.808Z,4.40
2022-12-15T12:39:13.785Z,4.00
2022-12-15T12:40:13.733Z,3.80
2022-12-15T12:41:14.147Z,4.50
2022-12-15T12:42:13.390Z,4.00
2022-12-15T12:43:14.165Z,3.60
2022-12-15T12:44:13.551Z,3.30
2022-12-15T12:45:13.655Z,3.80
2022-12-15T12:46:13.759Z,3.90
2022-12-15T12:47:13.874Z,3.80
2022-12-15T12:48:14.048Z,3.60
2022-12-15T12:49:13.244Z,3.60
2022-12-15T12:50:13.274Z,3.40
2022-12-15T12:51:13.246Z,3.60
2022-12-15T12:52:13.263Z,3.10
2022-12-15T12:53:13.129Z,3.00
2022-12-15T12:54:13.137Z,3.00
2022-12-15T12:55:14.846Z,2.90
2022-12-15T12:56:13.012Z,2.20
2022-12-15T12:57:13.015Z,2.20
2022-12-15T12:58:13.520Z,2.70
2022-12-15T12:59:13.481Z,2.80
2022-12-15T13:00:13.487Z,2.90
2022-12-15T13:01:13.512Z,2.40
2022-12-15T13:02:14.013Z,2.80
2022-12-15T13:03:13.108Z,3.00
2022-12-15T13:04:13.424Z,2.90
2022-12-15T13:05:13.726Z,3.20